createdAt,value
2023-06-06T00:00:25.345Z,5.43
2023-06-06T00:02:30.618Z,4.93
2023-06-06T00:04:33.811Z,4.60
2023-06-06T00:06:39.287Z,5.47
2023-06-06T00:08:44.015Z,5.83
2023-06-06T00:10:47.099Z,5.40
2023-06-06T00:12:53.312Z,3.70
2023-06-06T00:14:57.296Z,5.27
2023-06-06T00:17:01.238Z,5.00
2023-06-06T00:19:04.862Z,4.37
2023-06-06T00:21:09.835Z,5.73
2023-06-06T00:23:13.807Z,4.73
2023-06-06T00:25:16.923Z,6.90
2023-06-06T00:27:20.847Z,5.53
2023-06-06T00:29:25.395Z,6.97
2023-06-06T00:31:28.517Z,5.67
2023-06-06T00:33:31.630Z,5.07
2023-06-06T00:35:34.920Z,7.40
2023-06-06T00:37:38.112Z,5.93
2023-06-06T00:39:41.238Z,6.67
2023-06-06T00:41:44.277Z,5.63
2023-06-06T00:43:47.424Z,6.37
2023-06-06T00:45:52.940Z,4.80
2023-06-06T00:47:56.027Z,5.43
2023-06-06T00:49:59.945Z,6.83
2023-06-06T00:52:03.726Z,5.63
2023-06-06T00:54:08.240Z,4.63
2023-06-06T00:56:14.377Z,4.93
2023-06-06T00:58:17.888Z,4.33
2023-06-06T01:00:21.591Z,5.17
2023-06-06T01:02:26.677Z,4.63
2023-06-06T01:04:30.087Z,5.27
2023-06-06T01:06:34.650Z,5.90
2023-06-06T01:08:38.259Z,4.27
2023-06-06T01:10:43.483Z,4.60
2023-06-06T01:12:52.303Z,5.30
2023-06-06T01:15:00.216Z,5.00
2023-06-06T01:17:05.213Z,5.50
2023-06-06T01:19:14.168Z,4.50
2023-06-06T01:21:17.916Z,4.83
2023-06-06T01:23:22.781Z,3.97
2023-06-06T01:25:26.515Z,4.73
2023-06-06T01:27:34.607Z,5.40
2023-06-06T01:29:37.745Z,8.67
2023-06-06T01:31:44.112Z,5.33
2023-06-06T01:33:51.709Z,4.77
2023-06-06T01:36:02.327Z,4.27
2023-06-06T01:38:09.290Z,5.20
2023-06-06T01:40:15.859Z,5.87
2023-06-06T01:42:19.165Z,4.73
2023-06-06T01:44:23.510Z,4.27
2023-06-06T01:46:28.413Z,4.00
2023-06-06T01:48:31.735Z,5.10
2023-06-06T01:50:34.925Z,5.67
2023-06-06T01:52:38.365Z,5.73
2023-06-06T01:54:41.980Z,6.50
2023-06-06T01:56:46.633Z,6.17
2023-06-06T01:58:49.900Z,8.07
2023-06-06T02:00:53.932Z,7.13
2023-06-06T02:02:57.173Z,6.40
2023-06-06T02:05:00.727Z,6.17
2023-06-06T02:07:04.157Z,6.73
2023-06-06T02:09:07.643Z,7.10
2023-06-06T02:11:13.055Z,6.20
2023-06-06T02:13:17.853Z,6.03
2023-06-06T02:15:21.176Z,7.23
2023-06-06T02:17:24.264Z,7.40
2023-06-06T02:19:29.633Z,6.07
2023-06-06T02:21:32.864Z,6.20
2023-06-06T02:23:35.938Z,6.70
2023-06-06T02:25:39.594Z,7.37
2023-06-06T02:27:44.892Z,7.03
2023-06-06T02:29:49.748Z,6.80
2023-06-06T02:31:53.227Z,6.60
2023-06-06T02:33:56.499Z,6.37
2023-06-06T02:35:59.639Z,6.93
2023-06-06T02:38:02.957Z,8.27
2023-06-06T02:40:10.013Z,7.20
2023-06-06T02:42:14.551Z,8.20
2023-06-06T02:44:18.350Z,8.53
2023-06-06T02:46:23.934Z,7.07
2023-06-06T02:48:27.841Z,7.20
2023-06-06T02:50:33.145Z,6.60
2023-06-06T02:52:39.818Z,7.33
2023-06-06T02:54:43.148Z,8.20
2023-06-06T02:56:46.368Z,7.67
2023-06-06T02:58:49.460Z,6.70
2023-06-06T03:00:53.020Z,7.67
2023-06-06T03:02:57.637Z,6.50
2023-06-06T03:05:01.131Z,8.27
2023-06-06T03:07:04.650Z,6.97
2023-06-06T03:09:07.976Z,8.20
2023-06-06T03:11:11.745Z,7.33
2023-06-06T03:13:16.146Z,8.57
2023-06-06T03:15:20.432Z,8.13
2023-06-06T03:17:26.712Z,8.40
2023-06-06T03:19:33.333Z,7.47
2023-06-06T03:21:37.941Z,8.80
2023-06-06T03:23:41.648Z,7.97
2023-06-06T03:25:46.143Z,6.77
2023-06-06T03:27:51.095Z,7.73
2023-06-06T03:29:55.588Z,6.93
2023-06-06T03:32:03.090Z,7.47
2023-06-06T03:34:06.431Z,7.10
2023-06-06T03:36:13.062Z,7.73
2023-06-06T03:38:16.307Z,7.20
2023-06-06T03:40:20.449Z,7.53
2023-06-06T03:42:23.914Z,8.53
2023-06-06T03:44:27.759Z,8.37
2023-06-06T03:46:31.705Z,7.00
2023-06-06T03:48:35.257Z,7.67
2023-06-06T03:50:38.430Z,8.33
2023-06-06T03:52:44.855Z,7.33
2023-06-06T03:54:48.377Z,7.50
2023-06-06T03:56:52.146Z,8.07
2023-06-06T03:58:55.256Z,7.60
2023-06-06T04:00:59.386Z,7.17
2023-06-06T04:03:03.634Z,8.60
2023-06-06T04:05:07.877Z,8.50
2023-06-06T04:07:10.916Z,8.37
2023-06-06T04:09:17.782Z,8.50
2023-06-06T04:11:20.953Z,7.00
2023-06-06T04:13:24.110Z,7.00
2023-06-06T04:15:27.641Z,7.20
2023-06-06T04:17:31.182Z,7.23
2023-06-06T04:19:34.472Z,9.47
2023-06-06T04:21:37.687Z,10.10
2023-06-06T04:23:40.798Z,9.63
2023-06-06T04:25:45.340Z,7.40
2023-06-06T04:27:49.541Z,8.20
2023-06-06T04:29:53.278Z,7.27
2023-06-06T04:31:56.363Z,7.50
2023-06-06T04:34:02.266Z,7.33
2023-06-06T04:36:07.912Z,6.87
2023-06-06T04:38:11.865Z,7.77
2023-06-06T04:40:16.697Z,6.73
2023-06-06T04:42:22.446Z,7.57
2023-06-06T04:44:26.164Z,8.13
2023-06-06T04:46:30.382Z,8.80
2023-06-06T04:48:34.139Z,10.30
2023-06-06T04:50:37.317Z,7.67
2023-06-06T04:52:40.629Z,7.07
2023-06-06T04:54:44.417Z,9.57
2023-06-06T04:56:49.029Z,8.30
2023-06-06T04:58:54.343Z,10.83
2023-06-06T05:00:59.013Z,8.93
2023-06-06T05:03:02.388Z,7.50
2023-06-06T05:05:06.237Z,8.67
2023-06-06T05:07:10.457Z,9.20
2023-06-06T05:09:13.777Z,8.60
2023-06-06T05:11:16.926Z,7.90
2023-06-06T05:13:20.229Z,9.63
2023-06-06T05:15:24.750Z,8.93
2023-06-06T05:17:29.050Z,8.67
2023-06-06T05:19:32.881Z,8.13
2023-06-06T05:21:36.012Z,8.97
2023-06-06T05:23:39.096Z,9.67
2023-06-06T05:25:42.225Z,7.33
2023-06-06T05:27:47.430Z,7.90
2023-06-06T05:29:50.631Z,6.70
2023-06-06T05:31:55.176Z,8.07
2023-06-06T05:33:58.207Z,8.10
2023-06-06T05:36:01.823Z,8.70
2023-06-06T05:38:05.033Z,9.67
2023-06-06T05:40:09.656Z,8.27
2023-06-06T05:42:12.812Z,8.13
2023-06-06T05:44:16.026Z,8.20
2023-06-06T05:46:19.572Z,7.90
2023-06-06T05:48:24.149Z,8.80
2023-06-06T05:50:27.202Z,8.47
2023-06-06T05:52:30.597Z,8.27
2023-06-06T05:54:48.726Z,8.50
2023-06-06T05:56:53.610Z,8.17
2023-06-06T05:58:56.783Z,7.37
2023-06-06T06:01:01.654Z,8.80
2023-06-06T06:03:05.142Z,7.87
2023-06-06T06:05:10.235Z,7.07
2023-06-06T06:07:14.899Z,7.90
2023-06-06T06:09:18.591Z,7.17
2023-06-06T06:11:22.409Z,9.43
2023-06-06T06:13:25.518Z,7.83
2023-06-06T06:15:31.529Z,6.37
2023-06-06T06:17:35.512Z,10.93
2023-06-06T06:19:38.722Z,7.70
2023-06-06T06:21:43.310Z,7.40
2023-06-06T06:23:46.464Z,6.10
2023-06-06T06:25:49.584Z,6.47
2023-06-06T06:27:52.924Z,7.67
2023-06-06T06:29:56.231Z,6.50
2023-06-06T06:31:59.412Z,5.20
2023-06-06T06:34:02.583Z,5.93
2023-06-06T06:36:06.670Z,5.23
2023-06-06T06:38:11.180Z,5.90
2023-06-06T06:40:14.622Z,5.37
2023-06-06T06:42:17.770Z,7.10
2023-06-06T06:44:33.662Z,5.00
2023-06-06T06:46:36.869Z,5.10
2023-06-06T06:48:40.389Z,5.93
2023-06-06T06:50:43.490Z,5.37
2023-06-06T06:52:47.014Z,5.60
2023-06-06T06:54:54.408Z,9.43
2023-06-06T06:56:57.811Z,4.40
2023-06-06T06:59:02.993Z,6.13
2023-06-06T07:01:06.558Z,4.90
2023-06-06T07:03:10.262Z,4.40
2023-06-06T07:05:13.776Z,4.93
2023-06-06T07:07:17.413Z,4.83
2023-06-06T07:09:21.718Z,4.83
2023-06-06T07:11:26.990Z,5.00
2023-06-06T07:13:30.209Z,6.80
2023-06-06T07:15:38.493Z,5.53
2023-06-06T07:17:43.650Z,4.67
2023-06-06T07:19:46.832Z,4.50
2023-06-06T07:21:49.909Z,4.23
2023-06-06T07:23:53.100Z,4.37
2023-06-06T07:25:56.176Z,5.73
2023-06-06T07:28:01.220Z,5.77
2023-06-06T07:30:05.195Z,4.90
2023-06-06T07:32:08.635Z,4.80
2023-06-06T07:34:11.996Z,4.67
2023-06-06T07:36:15.169Z,5.10
2023-06-06T07:38:18.273Z,5.17
2023-06-06T07:40:21.947Z,4.13
2023-06-06T07:42:24.996Z,5.27
2023-06-06T07:44:29.489Z,4.27
2023-06-06T07:46:32.795Z,4.60
2023-06-06T07:48:35.867Z,4.17
2023-06-06T07:50:38.969Z,3.50
2023-06-06T07:52:45.247Z,4.60
2023-06-06T07:54:48.488Z,4.43
2023-06-06T07:56:51.623Z,4.50
2023-06-06T07:58:55.897Z,4.10
2023-06-06T08:01:01.926Z,5.30
2023-06-06T08:03:07.859Z,3.60
2023-06-06T08:05:12.959Z,5.10
2023-06-06T08:07:45.726Z,4.30
2023-06-06T08:09:48.933Z,4.03
2023-06-06T08:11:52.313Z,4.93
2023-06-06T08:13:55.398Z,4.60
2023-06-06T08:15:58.512Z,4.93
2023-06-06T08:18:03.135Z,4.40
2023-06-06T08:20:09.825Z,4.20
2023-06-06T08:22:13.006Z,5.33
2023-06-06T08:24:16.217Z,4.00
2023-06-06T08:26:24.944Z,4.57
2023-06-06T08:28:28.525Z,4.57
2023-06-06T08:30:31.720Z,4.07
2023-06-06T08:32:34.941Z,5.70
2023-06-06T08:34:39.364Z,4.30
2023-06-06T08:36:42.456Z,3.90
2023-06-06T08:38:45.971Z,4.27
2023-06-06T08:40:49.677Z,5.23
2023-06-06T08:42:53.558Z,5.20
2023-06-06T08:44:58.114Z,4.93
2023-06-06T08:47:02.434Z,5.03
2023-06-06T08:49:07.195Z,4.50
2023-06-06T08:51:13.604Z,4.33
2023-06-06T08:53:16.827Z,4.47
2023-06-06T08:55:20.946Z,4.90
2023-06-06T08:57:24.552Z,5.80
2023-06-06T08:59:28.016Z,4.80
2023-06-06T09:01:31.935Z,4.97
2023-06-06T09:03:37.263Z,4.20
2023-06-06T09:05:40.908Z,5.57
2023-06-06T09:07:45.402Z,4.67
2023-06-06T09:09:50.354Z,4.43
2023-06-06T09:11:53.549Z,4.53
2023-06-06T09:13:56.821Z,4.40
2023-06-06T09:16:01.309Z,5.07
2023-06-06T09:18:04.537Z,4.60
2023-06-06T09:20:08.951Z,4.40
2023-06-06T09:22:12.230Z,4.33
2023-06-06T09:24:19.461Z,5.30
2023-06-06T09:26:23.206Z,4.47
2023-06-06T09:28:38.085Z,4.10
2023-06-06T09:30:41.270Z,5.17
2023-06-06T09:32:45.726Z,4.40
2023-06-06T09:34:49.504Z,4.60
2023-06-06T09:36:54.484Z,5.07
2023-06-06T09:39:04.549Z,4.00
2023-06-06T09:41:12.217Z,5.73
2023-06-06T09:43:16.620Z,4.00
2023-06-06T09:45:22.134Z,4.63
2023-06-06T09:47:26.090Z,4.30
2023-06-06T09:49:33.951Z,5.20
2023-06-06T09:51:37.258Z,7.47
2023-06-06T09:53:41.682Z,5.37
2023-06-06T09:55:45.751Z,4.70
2023-06-06T09:57:51.109Z,6.60
2023-06-06T09:59:55.436Z,5.37
2023-06-06T10:02:01.730Z,4.90
2023-06-06T10:04:08.522Z,5.20
2023-06-06T10:06:11.878Z,5.50
2023-06-06T10:08:15.100Z,5.30
2023-06-06T10:10:19.537Z,4.53
2023-06-06T10:12:24.483Z,7.70
2023-06-06T10:14:30.458Z,4.70
2023-06-06T10:16:36.329Z,4.83
2023-06-06T10:18:40.188Z,5.73
2023-06-06T10:20:43.569Z,4.80
2023-06-06T10:22:46.777Z,4.80
2023-06-06T10:24:50.028Z,4.80
2023-06-06T10:26:57.667Z,6.57
2023-06-06T10:29:05.404Z,6.43
2023-06-06T10:31:15.275Z,8.70
2023-06-06T10:33:27.768Z,4.60
2023-06-06T10:35:32.401Z,5.13
2023-06-06T10:37:39.270Z,6.70
2023-06-06T10:39:42.963Z,5.93
2023-06-06T10:41:52.247Z,4.73
2023-06-06T10:43:55.563Z,4.87
2023-06-06T10:45:58.693Z,4.93
2023-06-06T10:48:04.618Z,5.37
2023-06-06T10:50:22.532Z,5.10
2023-06-06T10:52:27.538Z,5.17
2023-06-06T10:54:30.702Z,4.60
2023-06-06T10:56:34.043Z,5.77
2023-06-06T10:58:37.697Z,4.83
2023-06-06T11:00:43.026Z,5.90
2023-06-06T11:02:48.679Z,4.30
2023-06-06T11:05:01.533Z,5.60
2023-06-06T11:07:17.446Z,5.17
2023-06-06T11:09:23.585Z,4.77
2023-06-06T11:11:29.192Z,4.60
2023-06-06T11:13:36.146Z,6.43
2023-06-06T11:15:39.225Z,4.07
2023-06-06T11:17:47.402Z,4.80
2023-06-06T11:19:58.487Z,4.97
2023-06-06T11:22:04.006Z,7.67
2023-06-06T11:24:08.460Z,5.20
2023-06-06T11:26:11.974Z,4.90
2023-06-06T11:28:16.453Z,7.40
2023-06-06T11:30:19.769Z,5.27
2023-06-06T11:32:25.542Z,5.60
2023-06-06T11:34:28.823Z,4.40
2023-06-06T11:36:34.275Z,4.77
2023-06-06T11:38:37.507Z,5.50
2023-06-06T11:40:40.691Z,4.93
2023-06-06T11:42:45.045Z,4.37
2023-06-06T11:44:48.261Z,4.90
2023-06-06T11:46:52.765Z,4.00
2023-06-06T11:49:01.434Z,4.40
2023-06-06T11:51:14.043Z,4.30
2023-06-06T11:53:31.121Z,4.20
2023-06-06T11:55:38.185Z,4.67
2023-06-06T11:57:42.198Z,4.83
2023-06-06T11:59:45.509Z,4.63
2023-06-06T12:01:50.564Z,4.70
2023-06-06T12:03:53.924Z,4.60
2023-06-06T12:06:00.779Z,4.53
2023-06-06T12:08:07.200Z,4.70
2023-06-06T12:10:11.878Z,4.27
2023-06-06T12:12:15.259Z,4.60
2023-06-06T12:14:20.975Z,6.00
2023-06-06T12:16:25.023Z,4.80
2023-06-06T12:18:28.151Z,4.80
2023-06-06T12:20:31.347Z,4.23
2023-06-06T12:22:36.484Z,5.37
2023-06-06T12:24:39.574Z,6.00
2023-06-06T12:26:54.509Z,4.83
2023-06-06T12:28:59.125Z,4.50
2023-06-06T12:31:02.226Z,4.90
2023-06-06T12:33:05.682Z,7.27
2023-06-06T12:35:09.653Z,5.03
2023-06-06T12:37:12.916Z,5.17
2023-06-06T12:39:16.017Z,5.03
2023-06-06T12:41:19.057Z,5.30
2023-06-06T12:43:23.543Z,4.50
2023-06-06T12:45:27.683Z,3.90
2023-06-06T12:47:34.065Z,7.37
2023-06-06T12:49:40.563Z,4.60
2023-06-06T12:51:44.162Z,5.20
2023-06-06T12:53:47.582Z,4.83
2023-06-06T12:55:53.529Z,6.03
2023-06-06T12:57:56.724Z,5.07
2023-06-06T13:00:03.973Z,5.20
2023-06-06T13:02:12.410Z,5.50
2023-06-06T13:04:15.631Z,3.73
2023-06-06T13:06:18.707Z,4.13
2023-06-06T13:08:36.700Z,4.70
2023-06-06T13:10:41.691Z,4.57
2023-06-06T13:12:44.886Z,5.23
2023-06-06T13:14:48.135Z,4.03
2023-06-06T13:17:06.644Z,4.40
2023-06-06T13:19:15.400Z,4.63
2023-06-06T13:21:18.631Z,3.93
2023-06-06T13:23:22.018Z,4.90
2023-06-06T13:25:25.230Z,4.30
2023-06-06T13:27:28.356Z,4.17
2023-06-06T13:29:31.440Z,6.63
2023-06-06T13:31:34.761Z,3.63
2023-06-06T13:33:39.499Z,3.87
2023-06-06T13:35:46.244Z,4.93
2023-06-06T13:37:50.152Z,4.40
2023-06-06T13:39:53.591Z,4.30
2023-06-06T13:41:56.778Z,3.63
2023-06-06T13:44:00.686Z,4.43
2023-06-06T13:46:03.881Z,4.10
2023-06-06T13:48:07.780Z,3.97
2023-06-06T13:50:13.041Z,4.00
2023-06-06T13:52:16.245Z,3.60
2023-06-06T13:54:19.809Z,4.17
2023-06-06T13:56:24.225Z,3.73
2023-06-06T13:58:32.255Z,3.70
2023-06-06T14:00:35.876Z,5.60
2023-06-06T14:02:39.065Z,3.80
2023-06-06T14:04:43.668Z,3.10
2023-06-06T14:06:49.200Z,3.33
2023-06-06T14:08:52.795Z,3.30
2023-06-06T14:10:57.462Z,3.97
2023-06-06T14:13:00.683Z,3.40
2023-06-06T14:15:04.913Z,4.13
2023-06-06T14:17:09.743Z,3.93
2023-06-06T14:19:14.908Z,3.17
2023-06-06T14:21:29.377Z,10.47
2023-06-06T14:23:33.961Z,4.13
2023-06-06T14:25:37.070Z,3.83
2023-06-06T14:27:40.756Z,3.80
2023-06-06T14:29:43.990Z,3.60
2023-06-06T14:31:47.220Z,4.90
2023-06-06T14:33:50.688Z,5.57
2023-06-06T14:35:56.671Z,4.50
2023-06-06T14:38:00.079Z,4.00
2023-06-06T14:40:06.580Z,3.23
2023-06-06T14:42:10.432Z,4.13
2023-06-06T14:44:14.906Z,4.60
2023-06-06T14:46:18.340Z,4.50
2023-06-06T14:48:21.527Z,5.80
2023-06-06T14:50:24.673Z,3.67
2023-06-06T14:52:27.845Z,4.77
2023-06-06T14:54:31.513Z,4.37
2023-06-06T14:56:36.319Z,3.40
2023-06-06T14:58:43.988Z,4.20
2023-06-06T15:00:47.682Z,3.13
2023-06-06T15:02:50.971Z,4.50
2023-06-06T15:04:54.456Z,3.77
2023-06-06T15:06:57.664Z,3.37
2023-06-06T15:09:01.267Z,3.97
2023-06-06T15:11:04.515Z,3.57
2023-06-06T15:13:09.007Z,3.30
2023-06-06T15:15:12.807Z,4.13
2023-06-06T15:17:16.071Z,4.33
2023-06-06T15:19:19.182Z,3.67
2023-06-06T15:21:22.355Z,3.60
2023-06-06T15:23:25.651Z,4.77
2023-06-06T15:25:28.845Z,3.27
2023-06-06T15:27:32.850Z,3.57
2023-06-06T15:29:39.293Z,4.30
2023-06-06T15:31:42.968Z,4.00
2023-06-06T15:33:46.063Z,3.43
2023-06-06T15:35:49.461Z,3.40
2023-06-06T15:37:53.018Z,3.27
2023-06-06T15:39:56.381Z,4.07
2023-06-06T15:41:59.497Z,3.70
2023-06-06T15:44:02.676Z,3.50
2023-06-06T15:46:07.271Z,3.63
2023-06-06T15:48:10.680Z,4.03
2023-06-06T15:50:13.911Z,4.20
2023-06-06T15:52:17.024Z,5.00
2023-06-06T15:54:20.191Z,4.20
2023-06-06T15:56:23.379Z,4.07
2023-06-06T15:58:26.470Z,3.50
2023-06-06T16:00:30.818Z,3.63
2023-06-06T16:02:35.572Z,3.97
2023-06-06T16:04:40.569Z,3.90
2023-06-06T16:06:43.814Z,4.13
2023-06-06T16:08:46.986Z,3.33
2023-06-06T16:10:50.094Z,3.40
2023-06-06T16:12:53.125Z,3.73
2023-06-06T16:14:56.466Z,3.83
2023-06-06T16:16:59.935Z,4.77
2023-06-06T16:19:05.117Z,3.40
2023-06-06T16:21:08.616Z,4.73
2023-06-06T16:23:12.151Z,3.40
2023-06-06T16:25:15.243Z,3.17
2023-06-06T16:27:18.356Z,3.73
2023-06-06T16:29:22.578Z,4.80
2023-06-06T16:31:25.724Z,5.27
2023-06-06T16:33:28.875Z,3.73
2023-06-06T16:35:35.252Z,4.73
2023-06-06T16:37:38.587Z,4.10
2023-06-06T16:39:42.168Z,3.90
2023-06-06T16:41:45.270Z,3.40
2023-06-06T16:43:48.613Z,3.63
2023-06-06T16:45:52.151Z,4.53
2023-06-06T16:47:55.392Z,5.40
2023-06-06T16:50:00.865Z,3.37
2023-06-06T16:52:06.699Z,6.00
2023-06-06T16:54:13.483Z,4.17
2023-06-06T16:56:18.409Z,3.53
2023-06-06T16:58:21.530Z,3.50
2023-06-06T17:00:25.710Z,4.30
2023-06-06T17:02:28.920Z,3.40
2023-06-06T17:04:32.063Z,3.40
2023-06-06T17:06:35.252Z,3.40
2023-06-06T17:08:39.733Z,5.90
2023-06-06T17:10:42.881Z,4.67
2023-06-06T17:12:46.064Z,4.93
2023-06-06T17:14:49.205Z,4.87
2023-06-06T17:16:52.839Z,3.50
2023-06-06T17:18:55.895Z,3.73
2023-06-06T17:21:01.232Z,4.10
2023-06-06T17:23:04.424Z,3.43
2023-06-06T17:25:10.456Z,4.07
2023-06-06T17:27:13.607Z,3.73
2023-06-06T17:29:17.130Z,4.07
2023-06-06T17:31:20.315Z,3.90
2023-06-06T17:33:23.675Z,4.40
2023-06-06T17:35:28.675Z,3.67
2023-06-06T17:37:32.114Z,4.60
2023-06-06T17:39:35.228Z,3.40
2023-06-06T17:41:39.664Z,3.67
2023-06-06T17:43:43.344Z,3.50
2023-06-06T17:45:47.082Z,3.30
2023-06-06T17:47:50.293Z,3.63
2023-06-06T17:49:53.507Z,3.20
2023-06-06T17:51:56.634Z,3.30
2023-06-06T17:54:00.181Z,4.03
2023-06-06T17:56:03.469Z,3.70
2023-06-06T17:58:08.130Z,3.90
2023-06-06T18:00:12.820Z,3.80
2023-06-06T18:02:17.104Z,3.60
2023-06-06T18:04:20.510Z,3.40
2023-06-06T18:06:23.650Z,3.60
2023-06-06T18:08:26.952Z,4.20
2023-06-06T18:10:30.057Z,3.20
2023-06-06T18:12:33.637Z,3.90
2023-06-06T18:14:38.412Z,5.17
2023-06-06T18:16:41.931Z,3.70
2023-06-06T18:18:45.127Z,4.80
2023-06-06T18:20:48.260Z,3.50
2023-06-06T18:22:51.848Z,4.00
2023-06-06T18:24:54.966Z,4.43
2023-06-06T18:26:59.589Z,3.67
2023-06-06T18:29:05.046Z,4.10
2023-06-06T18:31:18.038Z,3.40
2023-06-06T18:33:27.586Z,3.67
2023-06-06T18:35:30.690Z,6.20
2023-06-06T18:37:35.098Z,3.57
2023-06-06T18:39:38.226Z,4.00
2023-06-06T18:41:41.481Z,4.17
2023-06-06T18:43:44.824Z,5.07
2023-06-06T18:45:49.326Z,3.77
2023-06-06T18:47:57.105Z,3.43
2023-06-06T18:50:01.084Z,3.90
2023-06-06T18:52:05.063Z,3.70
2023-06-06T18:54:08.354Z,3.83
2023-06-06T18:56:11.445Z,5.33
2023-06-06T18:58:14.593Z,4.20
2023-06-06T19:00:18.805Z,3.60
2023-06-06T19:02:22.837Z,4.50
2023-06-06T19:04:27.919Z,7.93
2023-06-06T19:06:31.041Z,3.97
2023-06-06T19:08:35.814Z,4.30
2023-06-06T19:10:39.048Z,4.83
2023-06-06T19:12:48.930Z,5.17
2023-06-06T19:14:52.855Z,4.37
2023-06-06T19:16:56.519Z,4.43
2023-06-06T19:18:59.776Z,4.50
2023-06-06T19:21:04.604Z,6.60
2023-06-06T19:23:08.412Z,4.03
2023-06-06T19:25:11.589Z,4.13
2023-06-06T19:27:14.923Z,4.17
2023-06-06T19:29:18.263Z,5.30
2023-06-06T19:31:21.458Z,5.60
2023-06-06T19:33:24.960Z,5.13
2023-06-06T19:35:28.179Z,7.90
2023-06-06T19:37:32.672Z,5.90
2023-06-06T19:39:37.735Z,5.83
2023-06-06T19:41:41.797Z,5.03
2023-06-06T19:43:47.825Z,4.60
2023-06-06T19:45:51.193Z,4.97
2023-06-06T19:47:54.349Z,4.70
2023-06-06T19:49:58.712Z,5.97
2023-06-06T19:52:02.130Z,5.43
2023-06-06T19:54:06.990Z,5.57
2023-06-06T19:56:10.100Z,5.07
2023-06-06T19:58:13.508Z,4.67
2023-06-06T20:00:17.252Z,4.60
2023-06-06T20:02:20.365Z,4.60
2023-06-06T20:04:23.546Z,4.57
2023-06-06T20:06:29.909Z,5.33
2023-06-06T20:08:34.883Z,5.03
2023-06-06T20:10:39.477Z,5.47
2023-06-06T20:12:42.806Z,4.97
2023-06-06T20:14:46.007Z,5.30
2023-06-06T20:16:49.187Z,4.50
2023-06-06T20:18:52.437Z,5.07
2023-06-06T20:20:55.897Z,5.00
2023-06-06T20:22:59.009Z,4.87
2023-06-06T20:25:02.433Z,4.37
2023-06-06T20:27:14.505Z,4.60
2023-06-06T20:29:17.941Z,4.90
2023-06-06T20:31:21.153Z,5.30
2023-06-06T20:33:24.666Z,4.40
2023-06-06T20:35:28.053Z,4.37
2023-06-06T20:37:31.192Z,5.00
2023-06-06T20:39:40.555Z,4.90
2023-06-06T20:41:43.806Z,4.47
2023-06-06T20:43:48.366Z,4.90
2023-06-06T20:45:51.900Z,4.07
2023-06-06T20:47:55.133Z,5.50
2023-06-06T20:49:58.249Z,4.40
2023-06-06T20:52:01.638Z,5.60
2023-06-06T20:54:05.697Z,5.67
2023-06-06T20:56:08.910Z,4.73
2023-06-06T20:58:18.193Z,5.93
2023-06-06T21:00:22.815Z,5.03
2023-06-06T21:02:26.115Z,5.57
2023-06-06T21:04:29.362Z,5.40
2023-06-06T21:06:32.557Z,5.40
2023-06-06T21:08:36.273Z,7.40
2023-06-06T21:10:39.314Z,4.83
2023-06-06T21:12:42.849Z,6.37
2023-06-06T21:14:47.294Z,4.83
2023-06-06T21:16:51.900Z,5.30
2023-06-06T21:18:55.079Z,5.00
2023-06-06T21:20:58.200Z,4.87
2023-06-06T21:23:01.365Z,5.67
2023-06-06T21:25:05.042Z,6.30
2023-06-06T21:27:09.799Z,5.70
2023-06-06T21:29:15.202Z,5.23
2023-06-06T21:31:18.518Z,6.37
2023-06-06T21:33:23.114Z,6.27
2023-06-06T21:35:26.456Z,6.43
2023-06-06T21:37:29.586Z,6.67
2023-06-06T21:39:32.690Z,6.13
2023-06-06T21:41:35.849Z,6.50
2023-06-06T21:43:39.144Z,5.83
2023-06-06T21:45:42.339Z,6.67
2023-06-06T21:47:45.624Z,8.23
2023-06-06T21:49:50.121Z,6.40
2023-06-06T21:51:53.279Z,6.67
2023-06-06T21:53:57.529Z,8.13
2023-06-06T21:56:00.923Z,7.60
2023-06-06T21:58:04.148Z,7.60
2023-06-06T22:00:09.162Z,7.83
2023-06-06T22:02:19.768Z,7.67
2023-06-06T22:04:23.092Z,6.80
2023-06-06T22:06:28.236Z,7.77
2023-06-06T22:08:31.678Z,7.47
2023-06-06T22:10:34.790Z,7.23
2023-06-06T22:12:38.502Z,7.60
2023-06-06T22:14:42.690Z,7.07
2023-06-06T22:16:48.445Z,7.30
2023-06-06T22:18:53.039Z,6.97
2023-06-06T22:20:57.056Z,7.90
2023-06-06T22:23:01.695Z,7.73
2023-06-06T22:25:05.424Z,7.07
2023-06-06T22:27:08.960Z,7.80
2023-06-06T22:29:12.047Z,8.07
2023-06-06T22:31:15.313Z,7.37
2023-06-06T22:33:18.448Z,7.33
2023-06-06T22:35:21.659Z,6.83
2023-06-06T22:37:25.803Z,6.77
2023-06-06T22:39:30.390Z,6.80
2023-06-06T22:41:33.604Z,7.90
2023-06-06T22:43:36.761Z,6.97
2023-06-06T22:45:40.043Z,7.60
2023-06-06T22:47:43.403Z,7.20
2023-06-06T22:49:46.593Z,7.80
2023-06-06T22:51:49.919Z,7.33
2023-06-06T22:53:55.896Z,6.90
2023-06-06T22:56:00.523Z,7.67
2023-06-06T22:58:03.978Z,7.80
2023-06-06T23:00:09.287Z,7.23
2023-06-06T23:02:12.441Z,7.13
2023-06-06T23:04:15.508Z,6.40
2023-06-06T23:06:19.000Z,8.90
2023-06-06T23:08:22.165Z,7.67
2023-06-06T23:10:25.282Z,8.47
2023-06-06T23:12:29.811Z,7.53
2023-06-06T23:14:32.930Z,7.30
2023-06-06T23:16:37.772Z,7.40
2023-06-06T23:18:41.476Z,6.40
2023-06-06T23:20:44.691Z,7.47
2023-06-06T23:22:47.906Z,7.53
2023-06-06T23:24:51.010Z,7.57
2023-06-06T23:26:54.212Z,8.53
2023-06-06T23:28:59.426Z,8.13
2023-06-06T23:31:02.597Z,7.47
2023-06-06T23:33:06.089Z,8.77
2023-06-06T23:35:10.318Z,8.97
2023-06-06T23:37:13.590Z,7.70
2023-06-06T23:39:17.069Z,7.60
2023-06-06T23:41:20.188Z,7.70
2023-06-06T23:43:23.330Z,7.20
2023-06-06T23:45:27.801Z,7.97
2023-06-06T23:47:30.965Z,8.00
2023-06-06T23:49:34.173Z,7.80
2023-06-06T23:51:37.278Z,9.70
2023-06-06T23:53:40.432Z,8.10
2023-06-06T23:55:43.481Z,7.77
2023-06-06T23:57:46.562Z,7.80
2023-06-06T23:59:50.081Z,8.83
